createdAt,value
2018-04-10T00:00:01.116Z,9
2018-04-10T00:01:01.109Z,8.87
2018-04-10T00:02:01.100Z,8.92
2018-04-10T00:03:00.828Z,8.85
2018-04-10T00:04:01.075Z,8.95
2018-04-10T00:05:01.065Z,8.85
2018-04-10T00:06:01.049Z,8.86
2018-04-10T00:07:00.799Z,8.86
2018-04-10T00:08:00.784Z,8.74
2018-04-10T00:09:00.768Z,8.69
2018-04-10T00:10:01.016Z,8.68
2018-04-10T00:11:00.745Z,8.74
2018-04-10T00:12:00.988Z,8.71
2018-04-10T00:13:00.725Z,8.64
2018-04-10T00:14:00.714Z,8.65
2018-04-10T00:15:00.956Z,8.62
2018-04-10T00:16:00.951Z,8.54
2018-04-10T00:17:00.426Z,8.58
2018-04-10T00:18:00.937Z,8.54
2018-04-10T00:19:00.662Z,8.54
2018-04-10T00:20:00.905Z,8.44
2018-04-10T00:21:00.644Z,8.46
2018-04-10T00:22:00.886Z,8.46
2018-04-10T00:23:00.878Z,8.4
2018-04-10T00:24:00.869Z,8.44
2018-04-10T00:25:00.341Z,8.39
2018-04-10T00:26:00.331Z,8.25
2018-04-10T00:27:00.577Z,8.36
2018-04-10T00:28:00.822Z,8.36
2018-04-10T00:29:00.298Z,8.4
2018-04-10T00:30:00.842Z,8.26
2018-04-10T00:31:00.533Z,8.26
2018-04-10T00:32:00.523Z,8.29
2018-04-10T00:33:00.514Z,8.35
2018-04-10T00:34:00.501Z,8.39
2018-04-10T00:35:00.490Z,8.34
2018-04-10T00:36:00.480Z,8.42
2018-04-10T00:37:00.727Z,8.42
2018-04-10T00:38:00.722Z,8.31
2018-04-10T00:39:00.953Z,8.36
2018-04-10T00:40:00.689Z,8.36
2018-04-10T00:41:00.685Z,8.39
2018-04-10T00:42:00.670Z,8.28
2018-04-10T00:43:00.404Z,8.31
2018-04-10T00:44:00.137Z,8.25
2018-04-10T00:45:00.380Z,8.19
2018-04-10T00:46:00.373Z,8.28
2018-04-10T00:47:00.618Z,8.17
2018-04-10T00:48:00.638Z,8.19
2018-04-10T00:49:00.596Z,8.22
2018-04-10T00:50:00.579Z,8.04
2018-04-10T00:51:00.569Z,8.1
2018-04-10T00:52:00.307Z,8.07
2018-04-10T00:53:00.293Z,8.07
2018-04-10T00:54:00.026Z,8.07
2018-04-10T00:55:00.525Z,8.07
2018-04-10T00:56:00.516Z,8.1
2018-04-10T00:56:59.995Z,8.04
2018-04-10T00:58:00.504Z,8.07
2018-04-10T00:59:00.232Z,7.98
2018-04-10T00:59:59.960Z,7.99
2018-04-10T01:01:00.205Z,7.95
2018-04-10T01:02:00.448Z,7.98
2018-04-10T01:03:00.441Z,7.96
2018-04-10T01:03:59.915Z,8.06
2018-04-10T01:05:00.415Z,7.98
2018-04-10T01:05:59.893Z,8.04
2018-04-10T01:07:00.146Z,7.99
2018-04-10T01:08:00.130Z,8.01
2018-04-10T01:08:59.861Z,8.03
2018-04-10T01:10:00.360Z,8.07
2018-04-10T01:11:00.093Z,7.96
2018-04-10T01:12:00.342Z,7.98
2018-04-10T01:13:00.325Z,8.04
2018-04-10T01:14:00.318Z,7.99
2018-04-10T01:15:00.053Z,7.96
2018-04-10T01:16:00.037Z,7.98
2018-04-10T01:17:00.030Z,7.98
2018-04-10T01:18:00.286Z,7.95
2018-04-10T01:19:00.006Z,8.03
2018-04-10T01:20:00.252Z,7.95
2018-04-10T01:21:00.246Z,7.99
2018-04-10T01:21:59.971Z,7.92
2018-04-10T01:23:00.216Z,7.92
2018-04-10T01:23:59.693Z,7.89
2018-04-10T01:24:59.938Z,7.82
2018-04-10T01:25:59.669Z,7.82
2018-04-10T01:27:00.171Z,7.77
2018-04-10T01:28:00.161Z,7.73
2018-04-10T01:28:59.895Z,7.74
2018-04-10T01:29:59.879Z,7.73
2018-04-10T01:30:59.866Z,7.67
2018-04-10T01:31:59.859Z,7.63
2018-04-10T01:32:59.846Z,7.59
2018-04-10T01:33:59.834Z,7.56
2018-04-10T01:34:59.567Z,7.55
2018-04-10T01:35:59.814Z,7.54
2018-04-10T01:37:00.068Z,7.52
2018-04-10T01:38:00.047Z,7.48
2018-04-10T01:39:00.037Z,7.44
2018-04-10T01:40:00.026Z,7.49
2018-04-10T01:40:59.499Z,7.44
2018-04-10T01:42:00.004Z,7.39
2018-04-10T01:42:59.732Z,7.39
2018-04-10T01:43:59.718Z,7.4
2018-04-10T01:44:59.714Z,7.36
2018-04-10T01:45:59.959Z,7.37
2018-04-10T01:46:59.689Z,7.31
2018-04-10T01:47:59.934Z,7.37
2018-04-10T01:48:59.918Z,7.34
2018-04-10T01:49:59.906Z,7.34
2018-04-10T01:50:59.901Z,7.36
2018-04-10T01:51:59.886Z,7.44
2018-04-10T01:52:59.616Z,7.52
2018-04-10T01:53:59.609Z,7.52
2018-04-10T01:54:59.594Z,7.41
2018-04-10T01:55:59.839Z,7.56
2018-04-10T01:56:59.572Z,7.45
2018-04-10T01:57:59.813Z,7.51
2018-04-10T01:58:59.803Z,7.49
2018-04-10T01:59:59.532Z,7.55
2018-04-10T02:00:59.268Z,7.48
2018-04-10T02:01:59.768Z,7.49
2018-04-10T02:02:59.756Z,7.49
2018-04-10T02:03:59.232Z,7.47
2018-04-10T02:04:59.223Z,7.48
2018-04-10T02:05:59.718Z,7.47
2018-04-10T02:06:59.454Z,7.48
2018-04-10T02:07:59.439Z,7.44
2018-04-10T02:08:59.427Z,7.45
2018-04-10T02:09:59.675Z,7.45
2018-04-10T02:10:59.665Z,7.48
2018-04-10T02:11:59.650Z,7.37
2018-04-10T02:12:59.637Z,7.36
2018-04-10T02:13:59.116Z,7.34
2018-04-10T02:14:59.619Z,7.31
2018-04-10T02:15:59.604Z,7.31
2018-04-10T02:16:59.339Z,7.31
2018-04-10T02:17:59.325Z,7.31
2018-04-10T02:18:59.318Z,7.37
2018-04-10T02:19:59.557Z,7.3
2018-04-10T02:20:59.550Z,7.36
2018-04-10T02:21:59.278Z,7.33
2018-04-10T02:22:59.522Z,7.3
2018-04-10T02:23:59.515Z,7.34
2018-04-10T02:24:59.505Z,7.36
2018-04-10T02:25:59.492Z,7.27
2018-04-10T02:26:59.220Z,7.29
2018-04-10T02:27:59.466Z,7.36
2018-04-10T02:28:59.196Z,7.34
2018-04-10T02:29:59.439Z,7.36
2018-04-10T02:30:59.431Z,7.34
2018-04-10T02:31:58.901Z,7.3
2018-04-10T02:32:59.145Z,7.34
2018-04-10T02:33:59.391Z,7.23
2018-04-10T02:34:59.124Z,7.33
2018-04-10T02:35:59.375Z,7.29
2018-04-10T02:36:59.100Z,7.34
2018-04-10T02:37:59.353Z,7.31
2018-04-10T02:38:59.082Z,7.27
2018-04-10T02:39:58.811Z,7.19
2018-04-10T02:40:59.320Z,7.21
2018-04-10T02:41:59.306Z,7.21
2018-04-10T02:42:59.030Z,7.26
2018-04-10T02:43:59.291Z,7.23
2018-04-10T02:44:59.008Z,7.22
2018-04-10T02:45:58.994Z,7.22
2018-04-10T02:46:59.239Z,7.26
2018-04-10T02:47:58.975Z,7.19
2018-04-10T02:48:58.959Z,7.23
2018-04-10T02:49:58.956Z,7.21
2018-04-10T02:50:59.194Z,7.13
2018-04-10T02:51:58.925Z,7.22
2018-04-10T02:52:59.168Z,7.21
2018-04-10T02:53:59.159Z,7.21
2018-04-10T02:54:58.887Z,7.19
2018-04-10T02:55:58.877Z,7.12
2018-04-10T02:56:59.123Z,7.01
2018-04-10T02:57:58.862Z,7.05
2018-04-10T02:58:58.849Z,7.04
2018-04-10T02:59:59.085Z,7.05
2018-04-10T03:00:58.818Z,7
2018-04-10T03:01:58.805Z,6.98
2018-04-10T03:02:59.056Z,7
2018-04-10T03:03:59.039Z,7.01
2018-04-10T03:04:59.031Z,7.08
2018-04-10T03:05:58.755Z,7.08
2018-04-10T03:06:59.009Z,7.05
2018-04-10T03:07:58.732Z,6.98
2018-04-10T03:08:58.464Z,7.08
2018-04-10T03:09:58.705Z,7.08
2018-04-10T03:10:58.959Z,7
2018-04-10T03:11:58.686Z,7.15
2018-04-10T03:12:58.674Z,7.11
2018-04-10T03:13:58.663Z,7.01
2018-04-10T03:14:58.904Z,7.05
2018-04-10T03:15:58.894Z,7.04
2018-04-10T03:16:58.882Z,6.97
2018-04-10T03:17:58.869Z,7.09
2018-04-10T03:18:58.600Z,7.05
2018-04-10T03:19:58.587Z,7.08
2018-04-10T03:20:58.837Z,7.12
2018-04-10T03:21:58.818Z,7.12
2018-04-10T03:22:58.554Z,7.11
2018-04-10T03:23:58.541Z,7.04
2018-04-10T03:24:58.530Z,7.12
2018-04-10T03:25:58.774Z,7.09
2018-04-10T03:26:58.759Z,7.13
2018-04-10T03:27:58.495Z,7.12
2018-04-10T03:28:58.805Z,7.15
2018-04-10T03:29:58.475Z,7.13
2018-04-10T03:30:58.717Z,7.21
2018-04-10T03:31:58.445Z,7.22
2018-04-10T03:32:58.431Z,7.15
2018-04-10T03:33:58.164Z,7.22
2018-04-10T03:34:58.413Z,7.27
2018-04-10T03:35:58.660Z,7.27
2018-04-10T03:36:58.384Z,7.23
2018-04-10T03:37:58.375Z,7.13
2018-04-10T03:38:58.105Z,7.26
2018-04-10T03:39:58.602Z,7.22
2018-04-10T03:40:58.593Z,7.22
2018-04-10T03:41:58.582Z,7.21
2018-04-10T03:42:58.568Z,7.23
2018-04-10T03:43:58.306Z,7.26
2018-04-10T03:44:58.286Z,7.18
2018-04-10T03:45:58.021Z,7.21
2018-04-10T03:46:58.265Z,7.21
2018-04-10T03:47:58.039Z,7.21
2018-04-10T03:48:58.496Z,7.21
2018-04-10T03:49:57.974Z,7.22
2018-04-10T03:50:58.477Z,7.18
2018-04-10T03:51:58.201Z,7.21
2018-04-10T03:52:58.452Z,7.22
2018-04-10T03:53:58.183Z,7.23
2018-04-10T03:54:58.424Z,7.23
2018-04-10T03:55:58.159Z,7.22
2018-04-10T03:56:58.406Z,7.18
2018-04-10T03:57:58.133Z,7.13
2018-04-10T03:58:58.371Z,7.04
2018-04-10T03:59:58.369Z,7.11
2018-04-10T04:00:58.094Z,7.03
2018-04-10T04:01:58.339Z,7.04
2018-04-10T04:02:58.329Z,7.05
2018-04-10T04:03:58.313Z,7.03
2018-04-10T04:04:57.791Z,7.04
2018-04-10T04:05:58.292Z,7
2018-04-10T04:06:58.024Z,7.03
2018-04-10T04:07:58.011Z,7.03
2018-04-10T04:08:58.429Z,7.05
2018-04-10T04:09:57.987Z,7
2018-04-10T04:10:58.232Z,7
2018-04-10T04:11:58.220Z,6.95
2018-04-10T04:12:57.954Z,6.94
2018-04-10T04:13:57.682Z,6.88
2018-04-10T04:14:58.181Z,6.95
2018-04-10T04:15:57.916Z,6.91
2018-04-10T04:16:57.903Z,6.85
2018-04-10T04:17:57.890Z,6.93
2018-04-10T04:18:57.622Z,6.85
2018-04-10T04:19:57.864Z,6.88
2018-04-10T04:20:57.856Z,6.88
2018-04-10T04:21:58.098Z,6.85
2018-04-10T04:22:57.835Z,6.8
2018-04-10T04:23:57.563Z,6.78
2018-04-10T04:24:57.806Z,6.8
2018-04-10T04:25:57.794Z,6.72
2018-04-10T04:26:58.038Z,6.79
2018-04-10T04:27:57.772Z,6.62
2018-04-10T04:28:58.016Z,6.65
2018-04-10T04:29:58.003Z,6.68
2018-04-10T04:30:57.736Z,6.7
2018-04-10T04:31:57.724Z,6.61
2018-04-10T04:32:57.971Z,6.61
2018-04-10T04:33:57.954Z,6.55
2018-04-10T04:34:57.945Z,6.61
2018-04-10T04:35:57.416Z,6.57
2018-04-10T04:36:57.917Z,6.65
2018-04-10T04:37:57.651Z,6.61
2018-04-10T04:38:57.900Z,6.67
2018-04-10T04:39:57.881Z,6.62
2018-04-10T04:40:57.612Z,6.67
2018-04-10T04:41:57.343Z,6.68
2018-04-10T04:42:57.588Z,6.75
2018-04-10T04:43:57.573Z,6.83
2018-04-10T04:44:57.821Z,6.9
2018-04-10T04:45:57.812Z,6.86
2018-04-10T04:46:57.795Z,6.97
2018-04-10T04:47:57.527Z,7.03
2018-04-10T04:48:57.772Z,7.03
2018-04-10T04:49:57.767Z,7.11
2018-04-10T04:50:57.494Z,7.23
2018-04-10T04:51:57.741Z,7.23
2018-04-10T04:52:57.472Z,7.26
2018-04-10T04:53:57.708Z,7.39
2018-04-10T04:54:57.441Z,7.37
2018-04-10T04:55:57.687Z,7.49
2018-04-10T04:56:57.676Z,7.48
2018-04-10T04:57:57.406Z,7.49
2018-04-10T04:58:57.651Z,7.39
2018-04-10T04:59:57.390Z,7.45
2018-04-10T05:00:57.369Z,7.51
2018-04-10T05:01:57.617Z,7.49
2018-04-10T05:02:57.600Z,7.49
2018-04-10T05:03:57.330Z,7.54
2018-04-10T05:04:57.583Z,7.64
2018-04-10T05:05:57.564Z,7.58
2018-04-10T05:06:57.556Z,7.58
2018-04-10T05:07:57.286Z,7.58
2018-04-10T05:08:57.016Z,7.59
2018-04-10T05:09:57.262Z,7.63
2018-04-10T05:10:57.508Z,7.77
2018-04-10T05:11:57.493Z,7.68
2018-04-10T05:12:56.969Z,7.77
2018-04-10T05:13:57.471Z,7.77
2018-04-10T05:14:57.458Z,7.77
2018-04-10T05:15:57.191Z,7.8
2018-04-10T05:16:57.221Z,7.78
2018-04-10T05:17:57.425Z,7.8
2018-04-10T05:18:57.410Z,7.78
2018-04-10T05:19:57.401Z,7.89
2018-04-10T05:20:57.388Z,7.85
2018-04-10T05:21:57.120Z,7.95
2018-04-10T05:22:57.154Z,7.91
2018-04-10T05:23:57.351Z,7.95
2018-04-10T05:24:57.340Z,7.96
2018-04-10T05:25:57.073Z,8.03
2018-04-10T05:26:57.336Z,7.93
2018-04-10T05:27:57.055Z,7.95
2018-04-10T05:28:57.301Z,7.96
2018-04-10T05:29:57.444Z,8.03
2018-04-10T05:30:57.271Z,8.06
2018-04-10T05:31:57.000Z,7.99
2018-04-10T05:32:57.251Z,8.09
2018-04-10T05:33:56.982Z,8.07
2018-04-10T05:34:56.971Z,8.03
2018-04-10T05:35:56.967Z,8.04
2018-04-10T05:36:56.689Z,8.07
2018-04-10T05:37:56.942Z,8.06
2018-04-10T05:38:57.178Z,8.07
2018-04-10T05:39:56.909Z,8.09
2018-04-10T05:40:56.901Z,8.07
2018-04-10T05:41:57.182Z,8.19
2018-04-10T05:42:56.880Z,8.21
2018-04-10T05:43:57.127Z,8.24
2018-04-10T05:44:56.599Z,8.13
2018-04-10T05:45:57.098Z,8.17
2018-04-10T05:46:56.832Z,8.21
2018-04-10T05:47:56.823Z,8.22
2018-04-10T05:48:57.066Z,8.28
2018-04-10T05:49:57.054Z,8.26
2018-04-10T05:50:56.788Z,8.36
2018-04-10T05:51:56.518Z,8.35
2018-04-10T05:52:57.019Z,8.43
2018-04-10T05:53:57.009Z,8.49
2018-04-10T05:54:56.998Z,8.49
2018-04-10T05:55:56.987Z,8.57
2018-04-10T05:56:56.717Z,8.58
2018-04-10T05:57:56.711Z,8.61
2018-04-10T05:58:56.960Z,8.62
2018-04-10T05:59:56.950Z,8.71
2018-04-10T06:00:56.419Z,8.79
2018-04-10T06:01:56.669Z,8.72
2018-04-10T06:02:56.910Z,8.85
2018-04-10T06:03:56.989Z,8.83
2018-04-10T06:04:56.632Z,8.86
2018-04-10T06:05:56.622Z,9.03
2018-04-10T06:06:56.611Z,9.11
2018-04-10T06:07:56.599Z,9.19
2018-04-10T06:08:56.843Z,9.23
2018-04-10T06:09:56.653Z,9.35
2018-04-10T06:10:56.824Z,9.41
2018-04-10T06:11:56.815Z,9.5
2018-04-10T06:12:56.547Z,9.52
2018-04-10T06:13:56.539Z,9.57
2018-04-10T06:14:56.528Z,9.64
2018-04-10T06:15:56.825Z,9.67
2018-04-10T06:16:56.501Z,9.77
2018-04-10T06:17:56.754Z,9.8
2018-04-10T06:18:56.224Z,9.82
2018-04-10T06:19:56.730Z,9.84
2018-04-10T06:20:56.465Z,9.92
2018-04-10T06:21:56.453Z,9.92
2018-04-10T06:22:56.446Z,9.96
2018-04-10T06:23:56.689Z,10
2018-04-10T06:24:56.678Z,10.1
2018-04-10T06:25:56.415Z,10.05
2018-04-10T06:26:56.659Z,10.14
2018-04-10T06:27:56.647Z,10.15
2018-04-10T06:28:56.637Z,10.21
2018-04-10T06:29:56.627Z,10.31
2018-04-10T06:30:56.618Z,10.47
2018-04-10T06:31:56.608Z,10.59
2018-04-10T06:32:56.598Z,10.66
2018-04-10T06:33:56.599Z,10.72
2018-04-10T06:34:56.589Z,10.79
2018-04-10T06:35:56.055Z,10.87
2018-04-10T06:36:56.561Z,11.13
2018-04-10T06:37:56.554Z,11.3
2018-04-10T06:38:56.283Z,11.66
2018-04-10T06:39:56.282Z,12.11
2018-04-10T06:40:56.265Z,12.69
2018-04-10T06:41:56.514Z,13.17
2018-04-10T06:42:56.500Z,13.76
2018-04-10T06:43:56.498Z,14.33
2018-04-10T06:44:56.486Z,15.02
2018-04-10T06:45:56.225Z,15.56
2018-04-10T06:46:56.472Z,16.29
2018-04-10T06:47:56.466Z,16.74
2018-04-10T06:48:55.937Z,17.25
2018-04-10T06:49:56.188Z,17.88
2018-04-10T06:50:56.442Z,18.29
2018-04-10T06:51:56.436Z,18.74
2018-04-10T06:52:56.225Z,19.28
2018-04-10T06:53:56.161Z,19.83
2018-04-10T06:54:55.897Z,20.38
2018-04-10T06:55:56.406Z,20.9
2018-04-10T06:56:56.146Z,21.4
2018-04-10T06:57:55.883Z,21.94
2018-04-10T06:58:56.136Z,22.26
2018-04-10T06:59:56.132Z,22.61
2018-04-10T07:00:56.386Z,23.03
2018-04-10T07:01:56.386Z,23.37
2018-04-10T07:02:56.380Z,23.77
2018-04-10T07:03:56.121Z,24.02
2018-04-10T07:04:56.371Z,24.34
2018-04-10T07:05:56.108Z,24.55
2018-04-10T07:06:56.366Z,24.66
2018-04-10T07:07:56.471Z,24.67
2018-04-10T07:08:56.114Z,24.86
2018-04-10T07:09:56.103Z,25
2018-04-10T07:10:56.102Z,25.01
2018-04-10T07:11:56.100Z,24.97
2018-04-10T07:12:56.352Z,25
2018-04-10T07:13:56.103Z,25.29
2018-04-10T07:14:56.353Z,25.44
2018-04-10T07:15:56.098Z,25.52
2018-04-10T07:16:56.350Z,25.63
2018-04-10T07:17:56.392Z,25.82
2018-04-10T07:18:56.093Z,25.94
2018-04-10T07:19:55.834Z,26.11
2018-04-10T07:20:56.210Z,26.22
2018-04-10T07:21:56.345Z,26.16
2018-04-10T07:22:56.343Z,26.16
2018-04-10T07:23:56.346Z,26.04
2018-04-10T07:24:56.085Z,25.74
2018-04-10T07:25:56.341Z,25.39
2018-04-10T07:26:56.085Z,25.01
2018-04-10T07:27:56.084Z,24.45
2018-04-10T07:28:56.343Z,23.97
2018-04-10T07:29:55.826Z,23.5
2018-04-10T07:30:56.335Z,23.03
2018-04-10T07:31:56.079Z,22.59
2018-04-10T07:32:56.332Z,22.24
2018-04-10T07:33:55.822Z,21.82
2018-04-10T07:34:56.332Z,21.59
2018-04-10T07:35:56.076Z,21.23
2018-04-10T07:36:56.080Z,21.01
2018-04-10T07:37:56.329Z,20.74
2018-04-10T07:38:56.072Z,20.41
2018-04-10T07:39:56.408Z,20.07
2018-04-10T07:40:56.096Z,19.86
2018-04-10T07:41:56.327Z,19.7
2018-04-10T07:42:56.067Z,19.49
2018-04-10T07:43:56.319Z,19.35
2018-04-10T07:44:56.313Z,19.25
2018-04-10T07:45:56.060Z,19.09
2018-04-10T07:46:56.317Z,19.1
2018-04-10T07:47:56.311Z,18.96
2018-04-10T07:48:55.796Z,18.93
2018-04-10T07:49:56.305Z,18.86
2018-04-10T07:50:56.302Z,18.78
2018-04-10T07:51:56.301Z,18.78
2018-04-10T07:52:56.299Z,18.71
2018-04-10T07:53:56.040Z,18.68
2018-04-10T07:54:56.296Z,18.84
2018-04-10T07:55:56.292Z,18.82
2018-04-10T07:56:56.037Z,18.87
2018-04-10T07:57:56.292Z,18.91
2018-04-10T07:58:55.773Z,18.91
2018-04-10T07:59:56.025Z,18.96
2018-04-10T08:00:56.438Z,18.96
2018-04-10T08:01:56.031Z,19.02
2018-04-10T08:02:56.296Z,18.97
2018-04-10T08:03:56.019Z,19.12
2018-04-10T08:04:56.282Z,18.99
2018-04-10T08:05:56.269Z,19
2018-04-10T08:06:56.301Z,19.05
2018-04-10T08:07:55.750Z,19.06
2018-04-10T08:08:56.267Z,19.1
2018-04-10T08:09:56.262Z,19.09
2018-04-10T08:10:56.008Z,19.15
2018-04-10T08:11:56.262Z,19.24
2018-04-10T08:12:56.257Z,19.17
2018-04-10T08:13:55.998Z,19.27
2018-04-10T08:14:56.348Z,19.37
2018-04-10T08:15:56.001Z,19.43
2018-04-10T08:16:56.248Z,19.49
2018-04-10T08:17:55.984Z,19.5
2018-04-10T08:18:55.986Z,19.52
2018-04-10T08:19:55.987Z,19.56
2018-04-10T08:20:56.240Z,19.65
2018-04-10T08:21:56.240Z,19.63
2018-04-10T08:22:55.980Z,19.64
2018-04-10T08:23:56.239Z,19.6
2018-04-10T08:24:55.977Z,19.55
2018-04-10T08:25:56.231Z,19.7
2018-04-10T08:26:56.233Z,19.72
2018-04-10T08:27:55.970Z,19.71
2018-04-10T08:28:55.711Z,19.75
2018-04-10T08:29:56.230Z,19.85
2018-04-10T08:30:56.223Z,19.83
2018-04-10T08:31:56.229Z,19.85
2018-04-10T08:32:56.216Z,19.89
2018-04-10T08:33:55.958Z,19.93
2018-04-10T08:34:55.956Z,19.83
2018-04-10T08:35:55.958Z,19.72
2018-04-10T08:36:56.207Z,19.72
2018-04-10T08:37:56.348Z,19.67
2018-04-10T08:38:56.203Z,19.67
2018-04-10T08:39:56.203Z,19.71
2018-04-10T08:40:56.205Z,19.71
2018-04-10T08:41:56.200Z,19.63
2018-04-10T08:42:55.684Z,19.65
2018-04-10T08:43:55.939Z,19.55
2018-04-10T08:44:55.942Z,19.75
2018-04-10T08:45:55.680Z,19.78
2018-04-10T08:46:56.190Z,19.93
2018-04-10T08:47:55.934Z,19.97
2018-04-10T08:48:56.182Z,20
2018-04-10T08:49:55.670Z,20.05
2018-04-10T08:50:55.925Z,20.05
2018-04-10T08:51:56.186Z,20.05
2018-04-10T08:52:56.180Z,20.1
2018-04-10T08:53:56.185Z,20.15
2018-04-10T08:54:55.919Z,20.22
2018-04-10T08:55:55.917Z,20.3
2018-04-10T08:56:55.921Z,20.25
2018-04-10T08:57:55.919Z,20.22
2018-04-10T08:58:55.924Z,20.4
2018-04-10T08:59:55.654Z,20.3
2018-04-10T09:00:55.908Z,20.29
2018-04-10T09:01:55.908Z,20.34
2018-04-10T09:02:56.167Z,20.49
2018-04-10T09:03:56.159Z,20.48
2018-04-10T09:04:56.163Z,20.51
2018-04-10T09:05:55.902Z,20.57
2018-04-10T09:06:56.158Z,20.6
2018-04-10T09:07:56.156Z,20.68
2018-04-10T09:08:56.153Z,20.81
2018-04-10T09:09:55.896Z,20.82
2018-04-10T09:10:55.895Z,20.88
2018-04-10T09:11:56.166Z,21.06
2018-04-10T09:12:55.892Z,21.08
2018-04-10T09:13:55.894Z,21.18
2018-04-10T09:14:55.891Z,21.18
2018-04-10T09:15:56.147Z,21.19
2018-04-10T09:16:55.888Z,21.28
2018-04-10T09:17:56.144Z,21.19
2018-04-10T09:18:56.139Z,21.16
2018-04-10T09:19:56.141Z,21.13
2018-04-10T09:20:56.139Z,21.16
2018-04-10T09:21:56.210Z,21.28
2018-04-10T09:22:56.139Z,21.18
2018-04-10T09:23:55.876Z,21.19
2018-04-10T09:24:55.880Z,21.23
2018-04-10T09:25:56.142Z,21.19
2018-04-10T09:26:56.137Z,21.28
2018-04-10T09:27:56.131Z,21.16
2018-04-10T09:28:55.875Z,21.3
2018-04-10T09:29:56.135Z,21.3
2018-04-10T09:30:56.129Z,21.22
2018-04-10T09:31:56.136Z,21.28
2018-04-10T09:32:56.131Z,21.37
2018-04-10T09:33:55.873Z,21.38
2018-04-10T09:34:56.136Z,21.34
2018-04-10T09:35:56.223Z,21.36
2018-04-10T09:36:56.132Z,21.4
2018-04-10T09:37:55.866Z,21.45
2018-04-10T09:38:55.861Z,21.38
2018-04-10T09:39:55.867Z,21.4
2018-04-10T09:40:56.118Z,21.38
2018-04-10T09:41:55.859Z,21.45
2018-04-10T09:42:56.115Z,21.46
2018-04-10T09:43:55.861Z,21.51
2018-04-10T09:44:55.602Z,21.41
2018-04-10T09:45:56.119Z,21.45
2018-04-10T09:46:56.124Z,21.36
2018-04-10T09:47:56.120Z,21.34
2018-04-10T09:48:56.115Z,21.46
2018-04-10T09:49:55.856Z,21.43
2018-04-10T09:50:56.154Z,21.46
2018-04-10T09:51:56.115Z,21.41
2018-04-10T09:52:56.112Z,21.31
2018-04-10T09:53:55.856Z,21.46
2018-04-10T09:54:56.112Z,21.43
2018-04-10T09:55:55.596Z,21.49
2018-04-10T09:56:55.849Z,21.62
2018-04-10T09:57:55.881Z,21.56
2018-04-10T09:58:56.111Z,21.77
2018-04-10T09:59:55.872Z,21.73
2018-04-10T10:00:56.110Z,21.78
2018-04-10T10:01:55.848Z,21.77
2018-04-10T10:02:55.851Z,21.89
2018-04-10T10:03:55.849Z,21.97
2018-04-10T10:04:55.850Z,22.04
2018-04-10T10:05:55.851Z,21.92
2018-04-10T10:06:56.104Z,21.8
2018-04-10T10:07:56.104Z,21.82
2018-04-10T10:08:56.100Z,21.85
2018-04-10T10:09:55.841Z,21.99
2018-04-10T10:10:55.845Z,22.04
2018-04-10T10:11:55.842Z,21.97
2018-04-10T10:12:55.870Z,22.05
2018-04-10T10:13:55.844Z,22
2018-04-10T10:14:55.951Z,21.93
2018-04-10T10:15:55.586Z,22.04
2018-04-10T10:16:56.099Z,21.93
2018-04-10T10:17:56.100Z,22.07
2018-04-10T10:18:56.097Z,22.15
2018-04-10T10:19:56.159Z,22.2
2018-04-10T10:20:55.836Z,22.23
2018-04-10T10:21:55.585Z,22.24
2018-04-10T10:22:55.839Z,22.3
2018-04-10T10:23:55.853Z,22.2
2018-04-10T10:24:56.095Z,22.31
2018-04-10T10:25:56.101Z,22.27
2018-04-10T10:26:56.093Z,22.2
2018-04-10T10:27:56.091Z,22.05
2018-04-10T10:28:56.097Z,22.14
2018-04-10T10:29:56.093Z,22.09
2018-04-10T10:30:56.103Z,22.12
2018-04-10T10:31:55.838Z,22.18
2018-04-10T10:32:56.112Z,22.14
2018-04-10T10:33:56.094Z,22.11
2018-04-10T10:34:56.098Z,22.12
2018-04-10T10:35:56.096Z,22.09
2018-04-10T10:36:56.091Z,22.18
2018-04-10T10:37:55.833Z,22.11
2018-04-10T10:38:56.089Z,22.14
2018-04-10T10:39:56.090Z,22.11
2018-04-10T10:40:55.837Z,22.14
2018-04-10T10:41:55.838Z,22.04
2018-04-10T10:42:55.831Z,21.99
2018-04-10T10:43:56.089Z,21.96
2018-04-10T10:44:56.088Z,21.8
2018-04-10T10:45:56.091Z,21.78
2018-04-10T10:46:56.087Z,21.77
2018-04-10T10:47:56.088Z,21.59
2018-04-10T10:48:56.105Z,21.59
2018-04-10T10:49:55.836Z,21.7
2018-04-10T10:50:56.092Z,21.78
2018-04-10T10:51:55.575Z,21.8
2018-04-10T10:52:56.093Z,21.97
2018-04-10T10:53:55.831Z,22.04
2018-04-10T10:54:55.868Z,21.93
2018-04-10T10:55:56.087Z,21.93
2018-04-10T10:56:56.090Z,22.05
2018-04-10T10:57:56.090Z,22.02
2018-04-10T10:58:55.830Z,22.09
2018-04-10T10:59:55.830Z,22.05
2018-04-10T11:00:56.087Z,22.11
2018-04-10T11:01:55.829Z,22.04
2018-04-10T11:02:55.853Z,21.97
2018-04-10T11:03:56.085Z,22.02
2018-04-10T11:04:56.085Z,22.05
2018-04-10T11:05:56.085Z,22.07
2018-04-10T11:06:56.094Z,21.93
2018-04-10T11:07:55.896Z,21.93
2018-04-10T11:08:55.827Z,21.76
2018-04-10T11:09:56.088Z,21.76
2018-04-10T11:10:55.869Z,21.78
2018-04-10T11:11:55.829Z,21.82
2018-04-10T11:12:56.087Z,21.97
2018-04-10T11:13:56.090Z,21.9
2018-04-10T11:14:55.567Z,22
2018-04-10T11:15:56.081Z,22.02
2018-04-10T11:16:55.567Z,21.99
2018-04-10T11:17:56.082Z,21.92
2018-04-10T11:18:56.080Z,21.78
2018-04-10T11:19:56.081Z,21.7
2018-04-10T11:20:55.823Z,21.74
2018-04-10T11:21:55.820Z,21.76
2018-04-10T11:22:55.564Z,21.74
2018-04-10T11:23:56.080Z,21.93
2018-04-10T11:24:56.078Z,21.97
2018-04-10T11:25:55.821Z,22.04
2018-04-10T11:26:55.821Z,22
2018-04-10T11:27:56.081Z,22.11
2018-04-10T11:28:56.078Z,22.12
2018-04-10T11:29:56.123Z,22.16
2018-04-10T11:30:55.567Z,22.27
2018-04-10T11:31:55.823Z,22.3
2018-04-10T11:32:56.079Z,22.36
2018-04-10T11:33:55.820Z,22.46
2018-04-10T11:34:56.079Z,22.49
2018-04-10T11:35:56.084Z,22.54
2018-04-10T11:36:55.822Z,22.52
2018-04-10T11:37:55.822Z,22.51
2018-04-10T11:38:55.826Z,22.51
2018-04-10T11:39:56.084Z,22.42
2018-04-10T11:40:56.080Z,22.31
2018-04-10T11:41:56.087Z,22.3
2018-04-10T11:42:55.826Z,22.23
2018-04-10T11:43:55.825Z,22.16
2018-04-10T11:44:55.566Z,22.07
2018-04-10T11:45:56.081Z,22.07
2018-04-10T11:46:56.083Z,22.08
2018-04-10T11:47:55.824Z,21.94
2018-04-10T11:48:56.083Z,21.9
2018-04-10T11:49:55.822Z,21.9
2018-04-10T11:50:55.824Z,21.89
2018-04-10T11:51:56.081Z,21.92
2018-04-10T11:52:56.081Z,22
2018-04-10T11:53:56.084Z,22.02
2018-04-10T11:54:56.082Z,21.96
2018-04-10T11:55:55.823Z,21.9
2018-04-10T11:56:55.822Z,21.77
2018-04-10T11:57:55.823Z,21.55
2018-04-10T11:58:55.821Z,21.49
2018-04-10T11:59:55.821Z,21.31
2018-04-10T12:00:56.076Z,21.25
2018-04-10T12:01:55.826Z,21.31
2018-04-10T12:02:56.078Z,21.27
2018-04-10T12:03:55.819Z,21.27
2018-04-10T12:04:56.082Z,21.23
2018-04-10T12:05:56.075Z,21.23
2018-04-10T12:06:56.088Z,21.31
2018-04-10T12:07:56.072Z,21.37
2018-04-10T12:08:55.817Z,21.45
2018-04-10T12:09:55.829Z,21.38
2018-04-10T12:10:55.560Z,21.4
2018-04-10T12:11:56.075Z,21.52
2018-04-10T12:12:56.069Z,21.59
2018-04-10T12:13:56.089Z,21.64
2018-04-10T12:14:56.073Z,21.61
2018-04-10T12:15:56.075Z,21.59
2018-04-10T12:16:55.821Z,21.48
2018-04-10T12:17:55.811Z,21.46
2018-04-10T12:18:55.826Z,21.51
2018-04-10T12:19:55.814Z,21.37
2018-04-10T12:20:55.814Z,21.49
2018-04-10T12:21:55.813Z,21.4
2018-04-10T12:22:55.557Z,21.3
2018-04-10T12:23:56.075Z,21.4
2018-04-10T12:24:56.069Z,21.33
2018-04-10T12:25:55.556Z,21.27
2018-04-10T12:26:56.066Z,21.23
2018-04-10T12:27:55.814Z,21.38
2018-04-10T12:28:55.814Z,21.36
2018-04-10T12:29:55.810Z,21.4
2018-04-10T12:30:56.069Z,21.4
2018-04-10T12:31:56.069Z,21.4
2018-04-10T12:32:56.071Z,21.4
2018-04-10T12:33:56.065Z,21.38
2018-04-10T12:34:55.553Z,21.41
2018-04-10T12:35:55.551Z,21.48
2018-04-10T12:36:56.068Z,21.59
2018-04-10T12:37:56.069Z,21.62
2018-04-10T12:38:56.065Z,21.59
2018-04-10T12:39:55.807Z,21.58
2018-04-10T12:40:55.806Z,21.48
2018-04-10T12:41:55.811Z,21.59
2018-04-10T12:42:55.811Z,21.58
2018-04-10T12:43:56.236Z,21.66
2018-04-10T12:44:55.807Z,21.66
2018-04-10T12:45:56.060Z,21.76
2018-04-10T12:46:55.803Z,21.78
2018-04-10T12:47:55.803Z,21.7
2018-04-10T12:48:55.805Z,21.61
2018-04-10T12:49:55.803Z,21.64
2018-04-10T12:50:56.060Z,21.61
2018-04-10T12:51:55.802Z,21.61
2018-04-10T12:52:55.800Z,21.59
2018-04-10T12:53:56.058Z,21.62
2018-04-10T12:54:55.803Z,21.51
2018-04-10T12:55:55.801Z,21.61
2018-04-10T12:56:56.065Z,21.49
2018-04-10T12:57:55.806Z,21.43
2018-04-10T12:58:55.799Z,21.43
2018-04-10T12:59:55.799Z,21.33
2018-04-10T13:00:56.059Z,21.28
2018-04-10T13:01:55.799Z,21.25
2018-04-10T13:02:56.058Z,21.3
2018-04-10T13:03:55.798Z,21.23
2018-04-10T13:04:56.052Z,21.23
2018-04-10T13:05:55.796Z,21.12
2018-04-10T13:06:56.054Z,21.03
2018-04-10T13:07:55.795Z,20.96